sensor_id;sensor_type;location;lat;lon;timestamp;P1;durP1;ratioP1;P2;durP2;ratioP2
3771;SDS011;1901;48.172;12.824;2024-02-28T00:00:45;21.65;;;11.50;;
3771;SDS011;1901;48.172;12.824;2024-02-28T00:03:10;24.47;;;11.10;;
3771;SDS011;1901;48.172;12.824;2024-02-28T00:05:36;25.95;;;11.63;;
3771;SDS011;1901;48.172;12.824;2024-02-28T00:08:01;22.98;;;11.30;;
3771;SDS011;1901;48.172;12.824;2024-02-28T00:10:26;27.63;;;12.57;;
3771;SDS011;1901;48.172;12.824;2024-02-28T00:12:51;22.85;;;11.93;;
3771;SDS011;1901;48.172;12.824;2024-02-28T00:15:16;26.13;;;11.15;;
3771;SDS011;1901;48.172;12.824;2024-02-28T00:17:41;27.30;;;12.03;;
3771;SDS011;1901;48.172;12.824;2024-02-28T00:20:07;24.77;;;12.07;;
3771;SDS011;1901;48.172;12.824;2024-02-28T00:22:32;24.77;;;11.52;;
3771;SDS011;1901;48.172;12.824;2024-02-28T00:24:57;26.55;;;11.95;;
3771;SDS011;1901;48.172;12.824;2024-02-28T00:27:23;22.00;;;11.60;;
3771;SDS011;1901;48.172;12.824;2024-02-28T00:29:48;27.13;;;11.73;;
3771;SDS011;1901;48.172;12.824;2024-02-28T00:32:13;22.83;;;10.73;;
3771;SDS011;1901;48.172;12.824;2024-02-28T00:34:38;25.55;;;12.55;;
3771;SDS011;1901;48.172;12.824;2024-02-28T00:37:03;23.33;;;11.20;;
3771;SDS011;1901;48.172;12.824;2024-02-28T00:39:28;21.77;;;10.30;;
3771;SDS011;1901;48.172;12.824;2024-02-28T00:41:53;21.98;;;11.73;;
3771;SDS011;1901;48.172;12.824;2024-02-28T00:44:19;25.53;;;11.93;;
3771;SDS011;1901;48.172;12.824;2024-02-28T00:46:44;22.27;;;11.17;;
3771;SDS011;1901;48.172;12.824;2024-02-28T00:49:09;24.25;;;11.13;;
3771;SDS011;1901;48.172;12.824;2024-02-28T00:51:34;25.23;;;11.53;;
3771;SDS011;1901;48.172;12.824;2024-02-28T00:54:01;26.52;;;11.68;;
3771;SDS011;1901;48.172;12.824;2024-02-28T00:56:26;21.93;;;10.93;;
3771;SDS011;1901;48.172;12.824;2024-02-28T00:58:52;25.98;;;12.32;;
3771;SDS011;1901;48.172;12.824;2024-02-28T01:01:17;25.00;;;11.70;;
3771;SDS011;1901;48.172;12.824;2024-02-28T01:03:42;25.70;;;11.88;;
3771;SDS011;1901;48.172;12.824;2024-02-28T01:06:07;24.88;;;11.43;;
3771;SDS011;1901;48.172;12.824;2024-02-28T01:08:33;23.10;;;11.55;;
3771;SDS011;1901;48.172;12.824;2024-02-28T01:10:58;29.73;;;12.35;;
3771;SDS011;1901;48.172;12.824;2024-02-28T01:13:24;23.40;;;11.10;;
3771;SDS011;1901;48.172;12.824;2024-02-28T01:15:49;23.87;;;11.93;;
3771;SDS011;1901;48.172;12.824;2024-02-28T01:18:14;23.83;;;13.00;;
3771;SDS011;1901;48.172;12.824;2024-02-28T01:20:39;25.80;;;11.13;;
3771;SDS011;1901;48.172;12.824;2024-02-28T01:23:04;26.23;;;12.75;;
3771;SDS011;1901;48.172;12.824;2024-02-28T01:25:30;24.83;;;12.60;;
3771;SDS011;1901;48.172;12.824;2024-02-28T01:27:55;26.13;;;12.30;;
3771;SDS011;1901;48.172;12.824;2024-02-28T01:30:21;25.77;;;13.68;;
3771;SDS011;1901;48.172;12.824;2024-02-28T01:32:46;26.37;;;12.63;;
3771;SDS011;1901;48.172;12.824;2024-02-28T01:35:11;26.60;;;11.93;;
3771;SDS011;1901;48.172;12.824;2024-02-28T01:37:37;26.48;;;11.77;;
3771;SDS011;1901;48.172;12.824;2024-02-28T01:40:02;23.00;;;12.25;;
3771;SDS011;1901;48.172;12.824;2024-02-28T01:42:29;27.33;;;12.82;;
3771;SDS011;1901;48.172;12.824;2024-02-28T01:44:55;26.63;;;12.77;;
3771;SDS011;1901;48.172;12.824;2024-02-28T01:47:20;27.40;;;12.70;;
3771;SDS011;1901;48.172;12.824;2024-02-28T01:49:45;27.57;;;13.97;;
3771;SDS011;1901;48.172;12.824;2024-02-28T01:52:11;26.35;;;14.07;;
3771;SDS011;1901;48.172;12.824;2024-02-28T01:54:37;28.17;;;13.93;;
3771;SDS011;1901;48.172;12.824;2024-02-28T01:57:02;30.15;;;13.25;;
3771;SDS011;1901;48.172;12.824;2024-02-28T01:59:28;30.77;;;14.43;;
3771;SDS011;1901;48.172;12.824;2024-02-28T02:01:54;28.33;;;13.25;;
3771;SDS011;1901;48.172;12.824;2024-02-28T02:04:19;29.23;;;12.80;;
3771;SDS011;1901;48.172;12.824;2024-02-28T02:06:44;26.67;;;12.40;;
3771;SDS011;1901;48.172;12.824;2024-02-28T02:09:12;29.90;;;14.32;;
3771;SDS011;1901;48.172;12.824;2024-02-28T02:11:37;23.40;;;12.83;;
3771;SDS011;1901;48.172;12.824;2024-02-28T02:14:03;28.05;;;13.10;;
3771;SDS011;1901;48.172;12.824;2024-02-28T02:16:28;26.97;;;13.93;;
3771;SDS011;1901;48.172;12.824;2024-02-28T02:18:55;25.48;;;12.82;;
3771;SDS011;1901;48.172;12.824;2024-02-28T02:21:23;31.27;;;14.80;;
3771;SDS011;1901;48.172;12.824;2024-02-28T02:23:51;29.85;;;13.93;;
3771;SDS011;1901;48.172;12.824;2024-02-28T02:26:16;28.70;;;13.17;;
3771;SDS011;1901;48.172;12.824;2024-02-28T02:28:41;30.98;;;13.43;;
3771;SDS011;1901;48.172;12.824;2024-02-28T02:31:07;32.73;;;14.33;;
3771;SDS011;1901;48.172;12.824;2024-02-28T02:33:32;31.63;;;14.25;;
3771;SDS011;1901;48.172;12.824;2024-02-28T02:35:58;32.67;;;14.77;;
3771;SDS011;1901;48.172;12.824;2024-02-28T02:38:23;31.30;;;15.20;;
3771;SDS011;1901;48.172;12.824;2024-02-28T02:40:49;27.30;;;14.05;;
3771;SDS011;1901;48.172;12.824;2024-02-28T02:43:14;36.75;;;14.90;;
3771;SDS011;1901;48.172;12.824;2024-02-28T02:45:39;32.97;;;14.37;;
3771;SDS011;1901;48.172;12.824;2024-02-28T02:48:04;29.83;;;14.13;;
3771;SDS011;1901;48.172;12.824;2024-02-28T02:50:29;30.38;;;13.18;;
3771;SDS011;1901;48.172;12.824;2024-02-28T02:52:55;33.50;;;13.90;;
3771;SDS011;1901;48.172;12.824;2024-02-28T02:55:20;31.03;;;13.63;;
3771;SDS011;1901;48.172;12.824;2024-02-28T02:57:45;32.25;;;15.18;;
3771;SDS011;1901;48.172;12.824;2024-02-28T03:00:11;30.23;;;14.32;;
3771;SDS011;1901;48.172;12.824;2024-02-28T03:02:37;35.97;;;14.30;;
3771;SDS011;1901;48.172;12.824;2024-02-28T03:05:04;36.38;;;15.38;;
3771;SDS011;1901;48.172;12.824;2024-02-28T03:07:29;31.33;;;14.80;;
3771;SDS011;1901;48.172;12.824;2024-02-28T03:09:55;34.60;;;14.57;;
3771;SDS011;1901;48.172;12.824;2024-02-28T03:12:20;32.40;;;14.53;;
3771;SDS011;1901;48.172;12.824;2024-02-28T03:14:46;32.85;;;14.05;;
3771;SDS011;1901;48.172;12.824;2024-02-28T03:17:11;32.67;;;13.73;;
3771;SDS011;1901;48.172;12.824;2024-02-28T03:19:37;32.67;;;15.73;;
3771;SDS011;1901;48.172;12.824;2024-02-28T03:22:02;31.13;;;14.52;;
3771;SDS011;1901;48.172;12.824;2024-02-28T03:24:28;37.83;;;16.38;;
3771;SDS011;1901;48.172;12.824;2024-02-28T03:26:53;38.70;;;15.47;;
3771;SDS011;1901;48.172;12.824;2024-02-28T03:29:18;31.30;;;14.13;;
3771;SDS011;1901;48.172;12.824;2024-02-28T03:31:43;35.25;;;15.45;;
3771;SDS011;1901;48.172;12.824;2024-02-28T03:34:08;32.75;;;13.65;;
3771;SDS011;1901;48.172;12.824;2024-02-28T03:36:34;34.83;;;14.02;;
3771;SDS011;1901;48.172;12.824;2024-02-28T03:39:00;35.03;;;14.47;;
3771;SDS011;1901;48.172;12.824;2024-02-28T03:41:25;34.63;;;14.87;;
3771;SDS011;1901;48.172;12.824;2024-02-28T03:43:50;36.57;;;16.00;;
3771;SDS011;1901;48.172;12.824;2024-02-28T03:46:15;31.42;;;14.00;;
3771;SDS011;1901;48.172;12.824;2024-02-28T03:48:40;36.13;;;16.73;;
3771;SDS011;1901;48.172;12.824;2024-02-28T03:51:05;35.37;;;15.37;;
3771;SDS011;1901;48.172;12.824;2024-02-28T03:53:31;33.77;;;14.70;;
3771;SDS011;1901;48.172;12.824;2024-02-28T03:55:56;36.80;;;16.20;;
3771;SDS011;1901;48.172;12.824;2024-02-28T03:58:21;32.30;;;16.03;;
3771;SDS011;1901;48.172;12.824;2024-02-28T04:00:46;33.77;;;15.07;;
3771;SDS011;1901;48.172;12.824;2024-02-28T04:03:11;37.80;;;15.63;;
3771;SDS011;1901;48.172;12.824;2024-02-28T04:05:38;37.72;;;16.67;;
3771;SDS011;1901;48.172;12.824;2024-02-28T04:08:04;36.13;;;15.30;;
3771;SDS011;1901;48.172;12.824;2024-02-28T04:10:29;33.92;;;15.63;;
3771;SDS011;1901;48.172;12.824;2024-02-28T04:12:54;32.78;;;14.18;;
3771;SDS011;1901;48.172;12.824;2024-02-28T04:15:19;32.83;;;15.43;;
3771;SDS011;1901;48.172;12.824;2024-02-28T04:17:45;31.90;;;14.80;;
3771;SDS011;1901;48.172;12.824;2024-02-28T04:20:10;33.20;;;14.87;;
3771;SDS011;1901;48.172;12.824;2024-02-28T04:22:36;34.95;;;15.70;;
3771;SDS011;1901;48.172;12.824;2024-02-28T04:25:01;36.30;;;15.43;;
3771;SDS011;1901;48.172;12.824;2024-02-28T04:27:26;37.20;;;14.83;;
3771;SDS011;1901;48.172;12.824;2024-02-28T04:29:51;33.97;;;15.10;;
3771;SDS011;1901;48.172;12.824;2024-02-28T04:32:16;34.87;;;14.20;;
3771;SDS011;1901;48.172;12.824;2024-02-28T04:34:42;32.83;;;14.95;;
3771;SDS011;1901;48.172;12.824;2024-02-28T04:37:07;34.13;;;14.52;;
3771;SDS011;1901;48.172;12.824;2024-02-28T04:39:32;29.90;;;14.00;;
3771;SDS011;1901;48.172;12.824;2024-02-28T04:41:57;30.33;;;14.35;;
3771;SDS011;1901;48.172;12.824;2024-02-28T04:44:22;34.13;;;14.00;;
3771;SDS011;1901;48.172;12.824;2024-02-28T04:46:48;36.40;;;15.27;;
3771;SDS011;1901;48.172;12.824;2024-02-28T04:49:13;31.77;;;14.60;;
3771;SDS011;1901;48.172;12.824;2024-02-28T04:51:38;28.23;;;14.18;;
3771;SDS011;1901;48.172;12.824;2024-02-28T04:54:03;28.75;;;13.30;;
3771;SDS011;1901;48.172;12.824;2024-02-28T04:56:28;33.43;;;14.57;;
3771;SDS011;1901;48.172;12.824;2024-02-28T04:58:53;28.40;;;14.40;;
3771;SDS011;1901;48.172;12.824;2024-02-28T05:01:19;31.57;;;14.63;;
3771;SDS011;1901;48.172;12.824;2024-02-28T05:03:44;32.85;;;14.68;;
3771;SDS011;1901;48.172;12.824;2024-02-28T05:06:09;35.20;;;15.03;;
3771;SDS011;1901;48.172;12.824;2024-02-28T05:08:37;33.08;;;15.02;;
3771;SDS011;1901;48.172;12.824;2024-02-28T05:11:03;31.17;;;13.52;;
3771;SDS011;1901;48.172;12.824;2024-02-28T05:13:28;32.47;;;15.23;;
3771;SDS011;1901;48.172;12.824;2024-02-28T05:15:53;29.83;;;14.03;;
3771;SDS011;1901;48.172;12.824;2024-02-28T05:18:18;33.37;;;14.60;;
3771;SDS011;1901;48.172;12.824;2024-02-28T05:20:43;31.07;;;14.67;;
3771;SDS011;1901;48.172;12.824;2024-02-28T05:23:09;28.27;;;13.97;;
3771;SDS011;1901;48.172;12.824;2024-02-28T05:25:34;32.03;;;15.03;;
3771;SDS011;1901;48.172;12.824;2024-02-28T05:27:59;27.23;;;13.30;;
3771;SDS011;1901;48.172;12.824;2024-02-28T05:30:24;30.30;;;13.60;;
3771;SDS011;1901;48.172;12.824;2024-02-28T05:32:49;30.37;;;13.07;;
3771;SDS011;1901;48.172;12.824;2024-02-28T05:35:15;33.70;;;13.98;;
3771;SDS011;1901;48.172;12.824;2024-02-28T05:37:40;30.77;;;13.40;;
3771;SDS011;1901;48.172;12.824;2024-02-28T05:40:06;28.70;;;13.83;;
3771;SDS011;1901;48.172;12.824;2024-02-28T05:42:31;35.72;;;15.15;;
3771;SDS011;1901;48.172;12.824;2024-02-28T05:44:57;38.58;;;15.85;;
3771;SDS011;1901;48.172;12.824;2024-02-28T05:47:22;37.57;;;16.57;;
3771;SDS011;1901;48.172;12.824;2024-02-28T05:49:48;38.17;;;15.35;;
3771;SDS011;1901;48.172;12.824;2024-02-28T05:52:13;39.90;;;15.80;;
3771;SDS011;1901;48.172;12.824;2024-02-28T05:54:38;37.40;;;16.77;;
3771;SDS011;1901;48.172;12.824;2024-02-28T05:57:03;37.47;;;14.37;;
3771;SDS011;1901;48.172;12.824;2024-02-28T05:59:28;34.50;;;13.67;;
3771;SDS011;1901;48.172;12.824;2024-02-28T06:01:54;35.93;;;15.37;;
3771;SDS011;1901;48.172;12.824;2024-02-28T06:04:19;35.00;;;13.55;;
3771;SDS011;1901;48.172;12.824;2024-02-28T06:06:44;38.73;;;15.07;;
3771;SDS011;1901;48.172;12.824;2024-02-28T06:09:09;36.33;;;13.20;;
3771;SDS011;1901;48.172;12.824;2024-02-28T06:11:35;41.55;;;15.18;;
3771;SDS011;1901;48.172;12.824;2024-02-28T06:14:00;46.38;;;15.65;;
3771;SDS011;1901;48.172;12.824;2024-02-28T06:16:26;42.38;;;16.27;;
3771;SDS011;1901;48.172;12.824;2024-02-28T06:18:51;44.30;;;14.93;;
3771;SDS011;1901;48.172;12.824;2024-02-28T06:21:16;44.50;;;17.02;;
3771;SDS011;1901;48.172;12.824;2024-02-28T06:23:42;38.80;;;14.63;;
3771;SDS011;1901;48.172;12.824;2024-02-28T06:26:07;40.47;;;14.43;;
3771;SDS011;1901;48.172;12.824;2024-02-28T06:28:39;45.50;;;16.88;;
3771;SDS011;1901;48.172;12.824;2024-02-28T06:31:11;45.03;;;16.15;;
3771;SDS011;1901;48.172;12.824;2024-02-28T06:33:36;46.28;;;16.33;;
3771;SDS011;1901;48.172;12.824;2024-02-28T06:36:01;42.47;;;15.50;;
3771;SDS011;1901;48.172;12.824;2024-02-28T06:38:26;44.20;;;16.03;;
3771;SDS011;1901;48.172;12.824;2024-02-28T06:40:51;44.17;;;16.33;;
3771;SDS011;1901;48.172;12.824;2024-02-28T06:43:17;45.27;;;16.60;;
3771;SDS011;1901;48.172;12.824;2024-02-28T06:45:42;41.13;;;16.60;;
3771;SDS011;1901;48.172;12.824;2024-02-28T06:48:07;43.57;;;16.97;;
3771;SDS011;1901;48.172;12.824;2024-02-28T06:50:32;42.45;;;16.08;;
3771;SDS011;1901;48.172;12.824;2024-02-28T06:52:57;40.33;;;15.60;;
3771;SDS011;1901;48.172;12.824;2024-02-28T06:55:23;40.87;;;15.63;;
3771;SDS011;1901;48.172;12.824;2024-02-28T06:57:48;47.75;;;16.02;;
3771;SDS011;1901;48.172;12.824;2024-02-28T07:00:13;38.27;;;16.23;;
3771;SDS011;1901;48.172;12.824;2024-02-28T07:02:39;39.25;;;15.43;;
3771;SDS011;1901;48.172;12.824;2024-02-28T07:05:05;44.57;;;16.97;;
3771;SDS011;1901;48.172;12.824;2024-02-28T07:07:31;39.50;;;16.60;;
3771;SDS011;1901;48.172;12.824;2024-02-28T07:09:57;42.37;;;15.30;;
3771;SDS011;1901;48.172;12.824;2024-02-28T07:12:22;34.13;;;14.43;;
3771;SDS011;1901;48.172;12.824;2024-02-28T07:14:47;40.53;;;14.10;;
3771;SDS011;1901;48.172;12.824;2024-02-28T07:17:12;42.85;;;15.10;;
3771;SDS011;1901;48.172;12.824;2024-02-28T07:19:37;40.53;;;15.48;;
3771;SDS011;1901;48.172;12.824;2024-02-28T07:22:03;37.30;;;15.80;;
3771;SDS011;1901;48.172;12.824;2024-02-28T07:24:30;34.47;;;14.73;;
3771;SDS011;1901;48.172;12.824;2024-02-28T07:26:55;39.13;;;14.27;;
3771;SDS011;1901;48.172;12.824;2024-02-28T07:29:20;36.63;;;13.87;;
3771;SDS011;1901;48.172;12.824;2024-02-28T07:31:46;37.92;;;14.48;;
3771;SDS011;1901;48.172;12.824;2024-02-28T07:34:12;39.08;;;14.30;;
3771;SDS011;1901;48.172;12.824;2024-02-28T07:36:37;35.67;;;14.65;;
3771;SDS011;1901;48.172;12.824;2024-02-28T07:39:03;36.88;;;13.60;;
3771;SDS011;1901;48.172;12.824;2024-02-28T07:41:28;34.60;;;13.05;;
3771;SDS011;1901;48.172;12.824;2024-02-28T07:43:53;39.40;;;15.20;;
3771;SDS011;1901;48.172;12.824;2024-02-28T07:46:18;39.20;;;15.05;;
3771;SDS011;1901;48.172;12.824;2024-02-28T07:48:43;36.58;;;14.30;;
3771;SDS011;1901;48.172;12.824;2024-02-28T07:51:08;40.07;;;15.10;;
3771;SDS011;1901;48.172;12.824;2024-02-28T07:53:34;37.55;;;15.77;;
3771;SDS011;1901;48.172;12.824;2024-02-28T07:55:59;34.45;;;15.35;;
3771;SDS011;1901;48.172;12.824;2024-02-28T07:58:25;32.60;;;13.73;;
3771;SDS011;1901;48.172;12.824;2024-02-28T08:00:50;35.93;;;13.77;;
3771;SDS011;1901;48.172;12.824;2024-02-28T08:03:15;41.47;;;15.43;;
3771;SDS011;1901;48.172;12.824;2024-02-28T08:05:41;38.53;;;15.63;;
3771;SDS011;1901;48.172;12.824;2024-02-28T08:08:08;43.50;;;14.52;;
3771;SDS011;1901;48.172;12.824;2024-02-28T08:10:33;37.30;;;15.40;;
3771;SDS011;1901;48.172;12.824;2024-02-28T08:13:00;39.53;;;15.38;;
3771;SDS011;1901;48.172;12.824;2024-02-28T08:15:25;35.57;;;14.17;;
3771;SDS011;1901;48.172;12.824;2024-02-28T08:17:50;39.50;;;15.00;;
3771;SDS011;1901;48.172;12.824;2024-02-28T08:20:16;39.13;;;14.27;;
3771;SDS011;1901;48.172;12.824;2024-02-28T08:22:41;36.42;;;14.63;;
3771;SDS011;1901;48.172;12.824;2024-02-28T08:25:06;37.25;;;15.23;;
3771;SDS011;1901;48.172;12.824;2024-02-28T08:27:32;38.33;;;15.73;;
3771;SDS011;1901;48.172;12.824;2024-02-28T08:29:59;35.83;;;15.65;;
3771;SDS011;1901;48.172;12.824;2024-02-28T08:32:24;37.42;;;14.85;;
3771;SDS011;1901;48.172;12.824;2024-02-28T08:34:49;42.40;;;16.83;;
3771;SDS011;1901;48.172;12.824;2024-02-28T08:37:14;42.00;;;15.30;;
3771;SDS011;1901;48.172;12.824;2024-02-28T08:39:39;38.27;;;15.97;;
3771;SDS011;1901;48.172;12.824;2024-02-28T08:42:05;40.17;;;15.53;;
3771;SDS011;1901;48.172;12.824;2024-02-28T08:44:30;32.47;;;14.48;;
3771;SDS011;1901;48.172;12.824;2024-02-28T08:46:55;36.10;;;15.43;;
3771;SDS011;1901;48.172;12.824;2024-02-28T08:49:20;40.40;;;15.43;;
3771;SDS011;1901;48.172;12.824;2024-02-28T08:51:46;40.63;;;15.50;;
3771;SDS011;1901;48.172;12.824;2024-02-28T08:54:11;35.53;;;14.85;;
3771;SDS011;1901;48.172;12.824;2024-02-28T08:56:36;43.20;;;16.05;;
3771;SDS011;1901;48.172;12.824;2024-02-28T08:59:01;39.90;;;16.07;;
3771;SDS011;1901;48.172;12.824;2024-02-28T09:01:26;36.43;;;15.70;;
3771;SDS011;1901;48.172;12.824;2024-02-28T09:03:51;39.25;;;16.00;;
3771;SDS011;1901;48.172;12.824;2024-02-28T09:06:16;41.57;;;16.27;;
3771;SDS011;1901;48.172;12.824;2024-02-28T09:08:42;41.85;;;15.77;;
3771;SDS011;1901;48.172;12.824;2024-02-28T09:11:07;38.70;;;14.85;;
3771;SDS011;1901;48.172;12.824;2024-02-28T09:13:32;42.97;;;14.07;;
3771;SDS011;1901;48.172;12.824;2024-02-28T09:15:57;36.10;;;14.63;;
3771;SDS011;1901;48.172;12.824;2024-02-28T09:18:23;41.13;;;15.93;;
3771;SDS011;1901;48.172;12.824;2024-02-28T09:20:48;39.80;;;14.75;;
3771;SDS011;1901;48.172;12.824;2024-02-28T09:23:13;37.83;;;15.17;;
3771;SDS011;1901;48.172;12.824;2024-02-28T09:25:39;40.80;;;16.55;;
3771;SDS011;1901;48.172;12.824;2024-02-28T09:28:05;46.38;;;19.50;;
3771;SDS011;1901;48.172;12.824;2024-02-28T09:30:30;44.90;;;18.10;;
3771;SDS011;1901;48.172;12.824;2024-02-28T09:32:55;43.77;;;17.03;;
3771;SDS011;1901;48.172;12.824;2024-02-28T09:35:20;40.07;;;16.47;;
3771;SDS011;1901;48.172;12.824;2024-02-28T09:37:45;38.47;;;15.43;;
3771;SDS011;1901;48.172;12.824;2024-02-28T09:40:11;39.30;;;15.27;;
3771;SDS011;1901;48.172;12.824;2024-02-28T09:42:36;32.60;;;13.80;;
3771;SDS011;1901;48.172;12.824;2024-02-28T09:45:02;42.10;;;16.87;;
3771;SDS011;1901;48.172;12.824;2024-02-28T09:47:28;40.75;;;16.08;;
3771;SDS011;1901;48.172;12.824;2024-02-28T09:49:53;37.17;;;15.13;;
3771;SDS011;1901;48.172;12.824;2024-02-28T09:52:19;38.05;;;15.35;;
3771;SDS011;1901;48.172;12.824;2024-02-28T09:54:44;40.10;;;15.73;;
3771;SDS011;1901;48.172;12.824;2024-02-28T09:57:10;38.53;;;15.70;;
3771;SDS011;1901;48.172;12.824;2024-02-28T09:59:36;36.70;;;15.48;;
3771;SDS011;1901;48.172;12.824;2024-02-28T10:02:01;38.58;;;15.52;;
3771;SDS011;1901;48.172;12.824;2024-02-28T10:04:28;36.15;;;15.18;;
3771;SDS011;1901;48.172;12.824;2024-02-28T10:06:54;37.53;;;15.38;;
3771;SDS011;1901;48.172;12.824;2024-02-28T10:09:19;35.57;;;14.00;;
3771;SDS011;1901;48.172;12.824;2024-02-28T10:11:44;39.33;;;15.80;;
3771;SDS011;1901;48.172;12.824;2024-02-28T10:14:11;41.90;;;17.17;;
3771;SDS011;1901;48.172;12.824;2024-02-28T10:16:36;38.63;;;16.20;;
3771;SDS011;1901;48.172;12.824;2024-02-28T10:19:01;39.35;;;16.25;;
3771;SDS011;1901;48.172;12.824;2024-02-28T10:21:29;38.53;;;16.55;;
3771;SDS011;1901;48.172;12.824;2024-02-28T10:23:57;38.88;;;14.77;;
3771;SDS011;1901;48.172;12.824;2024-02-28T10:26:23;43.38;;;16.85;;
3771;SDS011;1901;48.172;12.824;2024-02-28T10:28:48;36.67;;;14.63;;
3771;SDS011;1901;48.172;12.824;2024-02-28T10:31:14;34.27;;;14.43;;
3771;SDS011;1901;48.172;12.824;2024-02-28T10:33:41;39.45;;;16.13;;
3771;SDS011;1901;48.172;12.824;2024-02-28T10:36:06;37.05;;;15.18;;
3771;SDS011;1901;48.172;12.824;2024-02-28T10:38:32;34.05;;;15.75;;
3771;SDS011;1901;48.172;12.824;2024-02-28T10:41:03;36.88;;;14.82;;
3771;SDS011;1901;48.172;12.824;2024-02-28T10:43:29;37.08;;;14.70;;
3771;SDS011;1901;48.172;12.824;2024-02-28T10:45:58;37.63;;;15.77;;
3771;SDS011;1901;48.172;12.824;2024-02-28T10:48:26;37.55;;;15.68;;
3771;SDS011;1901;48.172;12.824;2024-02-28T10:50:51;36.40;;;15.27;;
3771;SDS011;1901;48.172;12.824;2024-02-28T10:53:20;35.75;;;15.05;;
3771;SDS011;1901;48.172;12.824;2024-02-28T10:55:46;39.85;;;15.35;;
3771;SDS011;1901;48.172;12.824;2024-02-28T10:58:12;36.58;;;16.75;;
3771;SDS011;1901;48.172;12.824;2024-02-28T11:00:39;42.58;;;17.23;;
3771;SDS011;1901;48.172;12.824;2024-02-28T11:03:06;39.35;;;17.67;;
3771;SDS011;1901;48.172;12.824;2024-02-28T11:05:35;36.90;;;16.40;;
3771;SDS011;1901;48.172;12.824;2024-02-28T11:08:01;37.70;;;15.95;;
3771;SDS011;1901;48.172;12.824;2024-02-28T11:10:30;38.80;;;16.37;;
3771;SDS011;1901;48.172;12.824;2024-02-28T11:12:56;45.10;;;18.63;;
3771;SDS011;1901;48.172;12.824;2024-02-28T11:15:24;39.83;;;17.33;;
3771;SDS011;1901;48.172;12.824;2024-02-28T11:17:49;39.60;;;16.85;;
3771;SDS011;1901;48.172;12.824;2024-02-28T11:20:15;36.57;;;15.80;;
3771;SDS011;1901;48.172;12.824;2024-02-28T11:22:40;37.47;;;16.85;;
3771;SDS011;1901;48.172;12.824;2024-02-28T11:25:05;31.47;;;14.87;;
3771;SDS011;1901;48.172;12.824;2024-02-28T11:27:31;37.88;;;15.63;;
3771;SDS011;1901;48.172;12.824;2024-02-28T11:29:56;38.35;;;16.65;;
3771;SDS011;1901;48.172;12.824;2024-02-28T11:32:24;37.80;;;15.70;;
3771;SDS011;1901;48.172;12.824;2024-02-28T11:34:49;37.78;;;15.13;;
3771;SDS011;1901;48.172;12.824;2024-02-28T11:37:16;39.28;;;15.75;;
3771;SDS011;1901;48.172;12.824;2024-02-28T11:39:46;40.85;;;17.63;;
3771;SDS011;1901;48.172;12.824;2024-02-28T11:42:15;36.83;;;15.18;;
3771;SDS011;1901;48.172;12.824;2024-02-28T11:44:40;32.28;;;15.68;;
3771;SDS011;1901;48.172;12.824;2024-02-28T11:47:07;35.10;;;14.63;;
3771;SDS011;1901;48.172;12.824;2024-02-28T11:49:34;31.35;;;13.43;;
3771;SDS011;1901;48.172;12.824;2024-02-28T11:51:59;29.63;;;13.83;;
3771;SDS011;1901;48.172;12.824;2024-02-28T11:54:24;35.50;;;14.37;;
3771;SDS011;1901;48.172;12.824;2024-02-28T11:56:49;32.70;;;14.20;;
3771;SDS011;1901;48.172;12.824;2024-02-28T11:59:15;37.10;;;14.47;;
3771;SDS011;1901;48.172;12.824;2024-02-28T12:01:41;33.13;;;13.47;;
3771;SDS011;1901;48.172;12.824;2024-02-28T12:04:07;36.33;;;14.60;;
3771;SDS011;1901;48.172;12.824;2024-02-28T12:06:35;35.20;;;15.88;;
3771;SDS011;1901;48.172;12.824;2024-02-28T12:09:04;31.58;;;14.00;;
3771;SDS011;1901;48.172;12.824;2024-02-28T12:11:32;34.45;;;14.52;;
3771;SDS011;1901;48.172;12.824;2024-02-28T12:13:57;32.22;;;15.05;;
3771;SDS011;1901;48.172;12.824;2024-02-28T12:16:24;36.70;;;16.65;;
3771;SDS011;1901;48.172;12.824;2024-02-28T12:18:49;35.78;;;16.05;;
3771;SDS011;1901;48.172;12.824;2024-02-28T12:21:14;34.00;;;14.97;;
3771;SDS011;1901;48.172;12.824;2024-02-28T12:23:40;32.50;;;13.00;;
3771;SDS011;1901;48.172;12.824;2024-02-28T12:26:05;36.72;;;14.27;;
3771;SDS011;1901;48.172;12.824;2024-02-28T12:28:31;36.42;;;14.90;;
3771;SDS011;1901;48.172;12.824;2024-02-28T12:30:56;32.00;;;13.93;;
3771;SDS011;1901;48.172;12.824;2024-02-28T12:33:21;30.97;;;13.80;;
3771;SDS011;1901;48.172;12.824;2024-02-28T12:35:47;33.55;;;14.65;;
3771;SDS011;1901;48.172;12.824;2024-02-28T12:38:12;32.77;;;14.87;;
3771;SDS011;1901;48.172;12.824;2024-02-28T12:40:39;30.83;;;14.43;;
3771;SDS011;1901;48.172;12.824;2024-02-28T12:43:04;31.53;;;14.43;;
3771;SDS011;1901;48.172;12.824;2024-02-28T12:45:30;34.20;;;14.13;;
3771;SDS011;1901;48.172;12.824;2024-02-28T12:47:55;35.67;;;15.25;;
3771;SDS011;1901;48.172;12.824;2024-02-28T12:50:22;29.20;;;12.63;;
3771;SDS011;1901;48.172;12.824;2024-02-28T12:52:47;27.90;;;12.83;;
3771;SDS011;1901;48.172;12.824;2024-02-28T12:55:15;32.17;;;14.25;;
3771;SDS011;1901;48.172;12.824;2024-02-28T12:57:41;32.38;;;14.15;;
3771;SDS011;1901;48.172;12.824;2024-02-28T13:00:06;33.38;;;14.50;;
3771;SDS011;1901;48.172;12.824;2024-02-28T13:02:33;32.92;;;14.82;;
3771;SDS011;1901;48.172;12.824;2024-02-28T13:04:58;32.43;;;13.90;;
3771;SDS011;1901;48.172;12.824;2024-02-28T13:07:24;32.40;;;14.88;;
3771;SDS011;1901;48.172;12.824;2024-02-28T13:09:49;34.00;;;15.23;;
3771;SDS011;1901;48.172;12.824;2024-02-28T13:12:14;34.17;;;14.48;;
3771;SDS011;1901;48.172;12.824;2024-02-28T13:14:39;32.30;;;13.95;;
3771;SDS011;1901;48.172;12.824;2024-02-28T13:17:04;36.07;;;14.50;;
3771;SDS011;1901;48.172;12.824;2024-02-28T13:19:30;35.20;;;14.05;;
3771;SDS011;1901;48.172;12.824;2024-02-28T13:21:56;33.33;;;12.88;;
3771;SDS011;1901;48.172;12.824;2024-02-28T13:24:21;33.08;;;14.02;;
3771;SDS011;1901;48.172;12.824;2024-02-28T13:26:46;34.95;;;14.70;;
3771;SDS011;1901;48.172;12.824;2024-02-28T13:29:11;35.43;;;14.27;;
3771;SDS011;1901;48.172;12.824;2024-02-28T13:31:36;31.97;;;14.97;;
3771;SDS011;1901;48.172;12.824;2024-02-28T13:34:01;34.23;;;13.77;;
3771;SDS011;1901;48.172;12.824;2024-02-28T13:36:28;32.78;;;14.27;;
3771;SDS011;1901;48.172;12.824;2024-02-28T13:38:53;29.07;;;13.03;;
3771;SDS011;1901;48.172;12.824;2024-02-28T13:41:18;36.43;;;14.53;;
3771;SDS011;1901;48.172;12.824;2024-02-28T13:43:43;33.40;;;15.10;;
3771;SDS011;1901;48.172;12.824;2024-02-28T13:46:08;35.63;;;15.73;;
3771;SDS011;1901;48.172;12.824;2024-02-28T13:48:35;34.70;;;13.85;;
3771;SDS011;1901;48.172;12.824;2024-02-28T13:51:00;27.87;;;12.87;;
3771;SDS011;1901;48.172;12.824;2024-02-28T13:53:26;29.52;;;13.20;;
3771;SDS011;1901;48.172;12.824;2024-02-28T13:55:52;32.42;;;14.25;;
3771;SDS011;1901;48.172;12.824;2024-02-28T13:58:17;31.27;;;14.10;;
3771;SDS011;1901;48.172;12.824;2024-02-28T14:00:43;32.83;;;13.60;;
3771;SDS011;1901;48.172;12.824;2024-02-28T14:03:10;31.63;;;15.00;;
3771;SDS011;1901;48.172;12.824;2024-02-28T14:05:35;34.90;;;14.60;;
3771;SDS011;1901;48.172;12.824;2024-02-28T14:08:00;31.10;;;14.15;;
3771;SDS011;1901;48.172;12.824;2024-02-28T14:10:28;36.38;;;15.10;;
3771;SDS011;1901;48.172;12.824;2024-02-28T14:12:53;35.83;;;15.63;;
3771;SDS011;1901;48.172;12.824;2024-02-28T14:15:19;36.17;;;14.90;;
3771;SDS011;1901;48.172;12.824;2024-02-28T14:17:44;45.05;;;18.90;;
3771;SDS011;1901;48.172;12.824;2024-02-28T14:20:10;37.92;;;16.25;;
3771;SDS011;1901;48.172;12.824;2024-02-28T14:22:35;33.37;;;15.73;;